Time;durP1;ratioP1;P1;durP2;ratioP2;P2;SDS_P1;SDS_P2;PMS_P1;PMS_P2;Temp;Humidity;BMP_temperature;BMP_pressure;BME280_temperature;BME280_humidity;BME280_pressure;Samples;Min_cycle;Max_cycle;Signal;HPM_P1;HPM_P2
2022/10/25 00:02:29;;;;;;;29.73;7.35;;;;;;;;;;6156646;23;20342;-93
2022/10/25 00:04:56;;;;;;;20.45;6.53;;;;;;;;;;6182163;23;20068;-92
2022/10/25 00:07:23;;;;;;;23.15;7.18;;;;;;;;;;6158257;23;20013;-93
2022/10/25 00:09:49;;;;;;;24.30;6.85;;;;;;;;;;6157772;23;20020;-93
2022/10/25 00:12:15;;;;;;;19.15;7.78;;;;;;;;;;6156496;23;20012;-93
2022/10/25 00:14:41;;;;;;;19.50;8.15;;;;;;;;;;6180161;23;20067;-92
2022/10/25 00:17:07;;;;;;;19.48;7.47;;;;;;;;;;6182295;23;20055;-93
2022/10/25 00:19:33;;;;;;;13.95;7.15;;;;;;;;;;6155312;23;20024;-92
2022/10/25 00:21:59;;;;;;;23.17;6.75;;;;;;;;;;6153196;23;20446;-93
2022/10/25 00:24:25;;;;;;;16.95;6.70;;;;;;;;;;6183557;23;20096;-93
2022/10/25 00:26:52;;;;;;;13.95;6.00;;;;;;;;;;6182212;23;20009;-93
2022/10/25 00:29:18;;;;;;;27.05;8.05;;;;;;;;;;6182824;23;20434;-93
2022/10/25 00:31:47;;;;;;;17.90;5.38;;;;;;;;;;6158307;23;20005;-93
2022/10/25 00:34:13;;;;;;;24.50;7.70;;;;;;;;;;6180660;23;20488;-93
2022/10/25 00:36:42;;;;;;;30.15;8.55;;;;;;;;;;6182579;23;20009;-93
2022/10/25 00:39:08;;;;;;;24.52;7.80;;;;;;;;;;6157993;23;20393;-92
2022/10/25 00:41:34;;;;;;;26.65;7.93;;;;;;;;;;6181429;23;20005;-92
2022/10/25 00:44:19;;;;;;;16.85;7.93;;;;;;;;;;6156338;23;20017;-91
2022/10/25 00:46:45;;;;;;;20.75;7.60;;;;;;;;;;6181425;23;20020;-92
2022/10/25 00:49:16;;;;;;;24.80;6.82;;;;;;;;;;6155215;23;20018;-93
2022/10/25 00:51:47;;;;;;;28.77;8.52;;;;;;;;;;6182344;23;20623;-92
2022/10/25 00:54:16;;;;;;;28.05;8.15;;;;;;;;;;6180716;23;20349;-92
2022/10/25 00:56:43;;;;;;;20.48;9.57;;;;;;;;;;6180737;23;20496;-95
2022/10/25 00:59:12;;;;;;;30.08;9.95;;;;;;;;;;6181480;23;20059;-93
2022/10/25 01:01:38;;;;;;;28.77;8.73;;;;;;;;;;6179358;23;20334;-92
2022/10/25 01:04:07;;;;;;;25.75;9.98;;;;;;;;;;6181578;23;20016;-93
2022/10/25 01:06:45;;;;;;;33.13;10.65;;;;;;;;;;6179141;23;20071;-93
2022/10/25 01:09:16;;;;;;;30.25;8.82;;;;;;;;;;6181332;23;20009;-94
2022/10/25 01:11:42;;;;;;;19.65;7.90;;;;;;;;;;6181331;23;20005;-93
2022/10/25 01:14:09;;;;;;;27.10;8.60;;;;;;;;;;6157393;23;20009;-93
2022/10/25 01:16:57;;;;;;;27.10;10.60;;;;;;;;;;6179924;23;20072;-94
2022/10/25 01:19:43;;;;;;;29.60;9.43;;;;;;;;;;6181715;23;20037;-93
2022/10/25 01:22:14;;;;;;;23.67;8.90;;;;;;;;;;6182036;23;20681;-93
2022/10/25 01:25:01;;;;;;;28.48;9.35;;;;;;;;;;6182396;23;20434;-94
2022/10/25 01:27:39;;;;;;;16.70;8.23;;;;;;;;;;6156130;23;20338;-94
2022/10/25 01:30:12;;;;;;;26.17;9.45;;;;;;;;;;6181542;23;20011;-93
2022/10/25 01:32:41;;;;;;;15.20;7.45;;;;;;;;;;6180074;23;20009;-93
2022/10/25 01:35:22;;;;;;;29.27;9.38;;;;;;;;;;6181716;23;20017;-94
2022/10/25 01:38:07;;;;;;;25.33;10.55;;;;;;;;;;6181937;23;20099;-94
2022/10/25 01:40:59;;;;;;;31.58;11.15;;;;;;;;;;6178908;23;20005;-94
2022/10/25 01:43:25;;;;;;;22.15;9.07;;;;;;;;;;6175837;22;20036;-94
2022/10/25 01:45:51;;;;;;;25.17;9.45;;;;;;;;;;6179912;23;20009;-94
2022/10/25 01:48:34;;;;;;;22.60;8.50;;;;;;;;;;6180214;23;20319;-93
2022/10/25 01:51:11;;;;;;;29.38;9.35;;;;;;;;;;6179066;23;20009;-94
2022/10/25 01:53:47;;;;;;;22.73;9.70;;;;;;;;;;6181507;23;20070;-94
2022/10/25 01:56:29;;;;;;;27.10;9.13;;;;;;;;;;6181268;23;20239;-94
2022/10/25 01:59:03;;;;;;;20.92;7.75;;;;;;;;;;6180562;23;20009;-93
2022/10/25 02:01:47;;;;;;;12.65;6.43;;;;;;;;;;6179824;23;20012;-94
2022/10/25 02:04:23;;;;;;;27.35;7.65;;;;;;;;;;6181554;23;20009;-94
2022/10/25 02:06:59;;;;;;;20.60;8.00;;;;;;;;;;6180353;23;20056;-94
2022/10/25 02:09:25;;;;;;;27.60;8.52;;;;;;;;;;6181596;23;20033;-93
2022/10/25 02:11:52;;;;;;;22.08;8.10;;;;;;;;;;6176718;23;20007;-94
2022/10/25 02:14:27;;;;;;;25.38;7.95;;;;;;;;;;6157342;23;20454;-94
2022/10/25 02:17:06;;;;;;;20.40;8.13;;;;;;;;;;6182387;23;20434;-93
2022/10/25 02:19:35;;;;;;;22.45;7.57;;;;;;;;;;6179870;23;20039;-93
2022/10/25 02:22:17;;;;;;;21.58;7.60;;;;;;;;;;6181771;23;20477;-94
2022/10/25 02:25:01;;;;;;;17.58;7.45;;;;;;;;;;6181419;23;20732;-94
2022/10/25 02:27:28;;;;;;;18.40;7.72;;;;;;;;;;6177751;23;20088;-94
2022/10/25 02:29:55;;;;;;;19.95;8.43;;;;;;;;;;6182450;23;20013;-94
2022/10/25 02:32:22;;;;;;;12.25;4.18;;;;;;;;;;6158960;23;20017;-94
2022/10/25 02:34:51;;;;;;;18.98;7.45;;;;;;;;;;6179869;23;20063;-94
2022/10/25 02:37:17;;;;;;;17.67;7.70;;;;;;;;;;6158315;23;20024;-94
2022/10/25 02:39:44;;;;;;;21.67;8.30;;;;;;;;;;6178852;23;20001;-94
2022/10/25 02:42:10;;;;;;;18.08;7.80;;;;;;;;;;6181456;23;20440;-93
2022/10/25 02:44:39;;;;;;;18.23;9.13;;;;;;;;;;6154211;23;20029;-94
2022/10/25 02:47:10;;;;;;;16.23;8.32;;;;;;;;;;6156909;23;20020;-93
2022/10/25 02:49:37;;;;;;;27.33;7.68;;;;;;;;;;6180284;23;20100;-93
2022/10/25 02:52:05;;;;;;;22.98;8.40;;;;;;;;;;6179338;23;20008;-93
2022/10/25 02:54:32;;;;;;;22.48;8.13;;;;;;;;;;6156815;23;20060;-94
2022/10/25 02:57:07;;;;;;;26.45;8.52;;;;;;;;;;6182142;23;20458;-93
2022/10/25 02:59:36;;;;;;;14.60;6.72;;;;;;;;;;6159371;23;20029;-94
2022/10/25 03:02:04;;;;;;;17.08;7.60;;;;;;;;;;6179858;23;20456;-93
2022/10/25 03:04:33;;;;;;;18.50;8.00;;;;;;;;;;6181164;23;20032;-94
2022/10/25 03:06:59;;;;;;;25.30;9.23;;;;;;;;;;6179916;23;20002;-94
2022/10/25 03:09:30;;;;;;;17.23;8.20;;;;;;;;;;6156747;23;20464;-94
2022/10/25 03:11:57;;;;;;;19.35;8.45;;;;;;;;;;6155519;23;20406;-94
2022/10/25 03:14:26;;;;;;;14.40;6.50;;;;;;;;;;6181111;23;20389;-94
2022/10/25 03:16:52;;;;;;;23.02;6.80;;;;;;;;;;6180469;23;20333;-94
2022/10/25 03:19:18;;;;;;;21.15;8.35;;;;;;;;;;6157415;23;20013;-94
2022/10/25 03:21:44;;;;;;;24.95;9.07;;;;;;;;;;6182202;23;20009;-94
2022/10/25 03:24:10;;;;;;;16.55;6.38;;;;;;;;;;6182391;23;20017;-94
2022/10/25 03:26:39;;;;;;;26.80;7.40;;;;;;;;;;6154631;23;20091;-94
2022/10/25 03:29:05;;;;;;;24.33;8.07;;;;;;;;;;6156411;23;20017;-94
2022/10/25 03:31:33;;;;;;;19.33;8.32;;;;;;;;;;6183089;23;20009;-94
2022/10/25 03:33:59;;;;;;;22.27;7.68;;;;;;;;;;6181639;23;20568;-93
2022/10/25 03:36:25;;;;;;;22.30;7.65;;;;;;;;;;6182219;23;20009;-94
2022/10/25 03:38:51;;;;;;;24.35;7.50;;;;;;;;;;6180168;23;20001;-93
2022/10/25 03:41:17;;;;;;;23.10;7.53;;;;;;;;;;6182340;23;20100;-94
2022/10/25 03:43:46;;;;;;;24.20;7.13;;;;;;;;;;6158688;23;20389;-94
2022/10/25 03:46:26;;;;;;;22.50;6.30;;;;;;;;;;6184109;23;20493;-94
2022/10/25 03:48:52;;;;;;;19.70;6.80;;;;;;;;;;6180259;23;20036;-93
2022/10/25 03:51:18;;;;;;;22.50;7.70;;;;;;;;;;6180568;23;20088;-93
2022/10/25 03:53:44;;;;;;;18.73;5.85;;;;;;;;;;6179472;23;20013;-93
2022/10/25 03:56:10;;;;;;;19.98;6.40;;;;;;;;;;6182035;23;20043;-94
2022/10/25 03:58:36;;;;;;;19.52;7.00;;;;;;;;;;6155608;23;20043;-93
2022/10/25 04:01:02;;;;;;;18.90;6.25;;;;;;;;;;6182487;23;20005;-94
2022/10/25 04:03:28;;;;;;;21.23;6.75;;;;;;;;;;6180100;23;20028;-94
2022/10/25 04:05:57;;;;;;;19.65;7.20;;;;;;;;;;6180355;23;20068;-93
2022/10/25 04:08:23;;;;;;;21.65;6.63;;;;;;;;;;6181994;23;20377;-93
2022/10/25 04:10:49;;;;;;;23.23;7.55;;;;;;;;;;6180049;23;20028;-94
2022/10/25 04:13:15;;;;;;;20.08;7.00;;;;;;;;;;6156812;23;20350;-93
2022/10/25 04:15:41;;;;;;;21.08;8.73;;;;;;;;;;6154443;23;20445;-94
2022/10/25 04:18:12;;;;;;;27.95;8.88;;;;;;;;;;6156844;23;20257;-95
2022/10/25 04:20:39;;;;;;;21.48;8.27;;;;;;;;;;6181288;23;20009;-94
2022/10/25 04:23:05;;;;;;;30.33;8.85;;;;;;;;;;6155772;23;20009;-93
2022/10/25 04:25:33;;;;;;;23.00;8.32;;;;;;;;;;6180024;23;20005;-94
2022/10/25 04:27:59;;;;;;;22.25;8.40;;;;;;;;;;6179820;23;20013;-94
2022/10/25 04:30:25;;;;;;;37.10;9.35;;;;;;;;;;6153785;23;20016;-93
2022/10/25 04:32:56;;;;;;;26.33;9.95;;;;;;;;;;6155300;23;20017;-93
2022/10/25 04:35:22;;;;;;;25.92;8.77;;;;;;;;;;6178664;23;20070;-92
2022/10/25 04:37:50;;;;;;;25.08;10.32;;;;;;;;;;6178075;23;20079;-94
2022/10/25 04:40:19;;;;;;;22.63;8.27;;;;;;;;;;6157506;23;20084;-93
2022/10/25 04:42:48;;;;;;;28.88;9.60;;;;;;;;;;6159781;23;20013;-94
2022/10/25 04:45:14;;;;;;;24.48;9.00;;;;;;;;;;6158515;23;20095;-93
2022/10/25 04:47:40;;;;;;;40.92;8.75;;;;;;;;;;6180482;23;20044;-94
2022/10/25 04:50:08;;;;;;;22.90;8.30;;;;;;;;;;6156610;23;20021;-94
2022/10/25 04:52:34;;;;;;;30.42;9.88;;;;;;;;;;6181017;23;20012;-93
2022/10/25 04:55:01;;;;;;;28.98;10.05;;;;;;;;;;6182181;23;20020;-93
2022/10/25 04:57:27;;;;;;;35.25;10.15;;;;;;;;;;6180987;23;20092;-93
2022/10/25 05:00:01;;;;;;;30.15;9.60;;;;;;;;;;6183044;23;20052;-94
2022/10/25 05:02:27;;;;;;;29.13;8.23;;;;;;;;;;6157662;23;20013;-92
2022/10/25 05:04:53;;;;;;;26.58;9.23;;;;;;;;;;6155883;23;20013;-92
2022/10/25 05:07:23;;;;;;;22.45;7.28;;;;;;;;;;6181834;23;20001;-94
2022/10/25 05:09:49;;;;;;;29.90;9.07;;;;;;;;;;6181718;23;20385;-93
2022/10/25 05:12:17;;;;;;;22.63;7.70;;;;;;;;;;6179946;23;20005;-93
2022/10/25 05:14:49;;;;;;;25.45;9.15;;;;;;;;;;6179440;23;20009;-93
2022/10/25 05:17:15;;;;;;;22.27;9.02;;;;;;;;;;6156016;23;20036;-94
2022/10/25 05:19:46;;;;;;;25.25;6.18;;;;;;;;;;6155830;23;20093;-94
2022/10/25 05:22:12;;;;;;;27.67;8.32;;;;;;;;;;6158212;23;20311;-93
2022/10/25 05:24:39;;;;;;;28.10;9.90;;;;;;;;;;6154557;23;20088;-94
2022/10/25 05:27:08;;;;;;;28.48;9.75;;;;;;;;;;6157390;23;20071;-94
2022/10/25 05:29:37;;;;;;;37.95;9.43;;;;;;;;;;6157054;23;20012;-94
2022/10/25 05:32:10;;;;;;;33.40;8.25;;;;;;;;;;6181042;23;20033;-95
2022/10/25 05:34:36;;;;;;;29.70;9.30;;;;;;;;;;6155271;23;20016;-94
2022/10/25 05:37:05;;;;;;;29.13;8.95;;;;;;;;;;6156454;23;20334;-95
2022/10/25 05:39:31;;;;;;;30.98;8.60;;;;;;;;;;6156136;23;20039;-93
2022/10/25 05:41:59;;;;;;;20.92;8.18;;;;;;;;;;6156080;23;20005;-93
2022/10/25 05:44:25;;;;;;;19.52;4.25;;;;;;;;;;6153665;23;20017;-94
2022/10/25 05:46:51;;;;;;;36.28;11.43;;;;;;;;;;6155924;23;20005;-94
2022/10/25 05:49:23;;;;;;;26.30;9.98;;;;;;;;;;6154263;23;20064;-94
2022/10/25 05:51:49;;;;;;;33.50;9.93;;;;;;;;;;6155026;23;20080;-94
2022/10/25 05:54:19;;;;;;;33.63;9.68;;;;;;;;;;6154760;23;20024;-95
2022/10/25 05:56:48;;;;;;;32.25;10.23;;;;;;;;;;6155799;23;20320;-94
2022/10/25 05:59:16;;;;;;;25.80;9.05;;;;;;;;;;6178134;23;20013;-93
2022/10/25 06:01:43;;;;;;;25.67;9.25;;;;;;;;;;6153527;23;20005;-93
2022/10/25 06:04:12;;;;;;;30.45;10.73;;;;;;;;;;6178317;23;20008;-94
2022/10/25 06:06:43;;;;;;;29.60;7.90;;;;;;;;;;6155159;23;20017;-94
2022/10/25 06:09:12;;;;;;;24.25;9.25;;;;;;;;;;6179342;23;20009;-94
2022/10/25 06:11:38;;;;;;;38.42;11.10;;;;;;;;;;6179075;23;20005;-93
2022/10/25 06:14:05;;;;;;;31.52;9.88;;;;;;;;;;6177784;23;20009;-94
2022/10/25 06:16:34;;;;;;;24.23;8.30;;;;;;;;;;6180845;23;20001;-95
2022/10/25 06:19:02;;;;;;;26.25;8.05;;;;;;;;;;6154665;23;20560;-94
2022/10/25 06:21:29;;;;;;;30.17;7.60;;;;;;;;;;6180522;23;20009;-94
2022/10/25 06:23:56;;;;;;;26.23;8.18;;;;;;;;;;6156206;23;20029;-95
2022/10/25 06:26:24;;;;;;;27.15;8.18;;;;;;;;;;6177366;23;20036;-93
2022/10/25 06:28:55;;;;;;;34.33;8.38;;;;;;;;;;6180324;23;20510;-94
2022/10/25 06:31:23;;;;;;;28.60;8.23;;;;;;;;;;6181907;23;20009;-94
2022/10/25 06:33:50;;;;;;;22.63;8.10;;;;;;;;;;6153994;23;20017;-94
2022/10/25 06:36:17;;;;;;;28.92;7.82;;;;;;;;;;6180701;23;20005;-94
2022/10/25 06:38:44;;;;;;;18.17;6.50;;;;;;;;;;6180719;23;20005;-94
2022/10/25 06:41:17;;;;;;;25.13;8.18;;;;;;;;;;6178916;23;20013;-94
2022/10/25 06:43:43;;;;;;;19.42;6.40;;;;;;;;;;6181476;22;20017;-93
2022/10/25 06:46:20;;;;;;;29.70;7.28;;;;;;;;;;6184127;23;20012;-93
2022/10/25 06:48:46;;;;;;;36.85;7.63;;;;;;;;;;6183546;23;20015;-95
2022/10/25 06:51:12;;;;;;;28.63;7.65;;;;;;;;;;6185166;23;20040;-94
2022/10/25 06:53:41;;;;;;;33.30;9.07;;;;;;;;;;6159386;23;20459;-94
2022/10/25 06:56:08;;;;;;;26.38;7.43;;;;;;;;;;6184237;23;20016;-94
2022/10/25 06:58:37;;;;;;;36.00;7.75;;;;;;;;;;6182629;23;20011;-93
2022/10/25 07:01:05;;;;;;;25.88;6.90;;;;;;;;;;6159391;23;20008;-94
2022/10/25 07:03:34;;;;;;;23.20;6.32;;;;;;;;;;6185040;23;20004;-94
2022/10/25 07:06:24;;;;;;;26.80;5.80;;;;;;;;;;6160315;23;20012;-94
2022/10/25 07:08:54;;;;;;;19.58;5.68;;;;;;;;;;6182566;23;20012;-94
2022/10/25 07:11:20;;;;;;;15.63;6.05;;;;;;;;;;6159758;23;20016;-94
2022/10/25 07:13:47;;;;;;;17.15;5.68;;;;;;;;;;6183191;23;20506;-93
2022/10/25 07:16:14;;;;;;;18.30;5.32;;;;;;;;;;6184574;23;20009;-94
2022/10/25 07:18:46;;;;;;;21.85;6.93;;;;;;;;;;6160265;23;20494;-93
2022/10/25 07:21:19;;;;;;;22.92;5.88;;;;;;;;;;6188054;23;20096;-94
2022/10/25 07:23:52;;;;;;;22.85;5.15;;;;;;;;;;6184573;23;20009;-95
2022/10/25 07:26:25;;;;;;;15.18;5.90;;;;;;;;;;6159387;23;20020;-95
2022/10/25 07:28:57;;;;;;;14.30;4.88;;;;;;;;;;6185360;23;20012;-96
2022/10/25 07:31:52;;;;;;;14.18;4.40;;;;;;;;;;6162888;23;20017;-94
2022/10/25 07:34:19;;;;;;;18.33;3.88;;;;;;;;;;6179954;23;20012;-94
2022/10/25 07:36:52;;;;;;;15.77;4.10;;;;;;;;;;6160870;23;20013;-93
2022/10/25 07:39:20;;;;;;;16.05;4.32;;;;;;;;;;6159215;23;20012;-95
2022/10/25 07:41:49;;;;;;;14.65;4.45;;;;;;;;;;6185127;23;20001;-94
2022/10/25 07:44:25;;;;;;;16.48;4.40;;;;;;;;;;6155318;22;20462;-93
2022/10/25 07:46:54;;;;;;;17.38;4.53;;;;;;;;;;6184749;23;20012;-94
2022/10/25 07:49:23;;;;;;;14.75;4.38;;;;;;;;;;6159783;23;20009;-94
2022/10/25 07:52:10;;;;;;;16.83;4.68;;;;;;;;;;6158536;23;20406;-94
2022/10/25 07:54:38;;;;;;;12.27;3.55;;;;;;;;;;6161378;23;20083;-93
2022/10/25 07:57:09;;;;;;;22.35;4.53;;;;;;;;;;6183708;23;20011;-94
2022/10/25 07:59:47;;;;;;;12.75;3.63;;;;;;;;;;6122698;23;20013;-94
2022/10/25 08:02:21;;;;;;;24.85;3.80;;;;;;;;;;6097902;23;20166;-95
2022/10/25 08:04:54;;;;;;;9.85;3.50;;;;;;;;;;6098365;23;20026;-94
2022/10/25 08:07:28;;;;;;;12.18;3.60;;;;;;;;;;6100237;23;20013;-94
2022/10/25 08:09:57;;;;;;;10.75;3.35;;;;;;;;;;6122877;23;20005;-95
2022/10/25 08:12:31;;;;;;;16.05;3.65;;;;;;;;;;6098699;23;20035;-94
2022/10/25 08:15:20;;;;;;;8.00;2.97;;;;;;;;;;6124106;23;20093;-94
2022/10/25 08:17:56;;;;;;;17.90;4.63;;;;;;;;;;6124892;23;20792;-95
2022/10/25 08:20:25;;;;;;;15.02;4.28;;;;;;;;;;6126298;23;20096;-94
2022/10/25 08:23:00;;;;;;;17.48;3.85;;;;;;;;;;6101465;23;20481;-93
2022/10/25 08:25:48;;;;;;;15.98;3.88;;;;;;;;;;6102816;23;20373;-95
2022/10/25 08:28:27;;;;;;;12.13;4.00;;;;;;;;;;6104467;23;20014;-95
2022/10/25 08:31:07;;;;;;;23.10;5.45;;;;;;;;;;6162668;23;20007;-95
2022/10/25 08:36:26;;;;;;;14.80;3.65;;;;;;;;;;6213234;23;20008;-94
2022/10/25 08:38:55;;;;;;;12.25;3.70;;;;;;;;;;6160215;23;20016;-94
2022/10/25 08:41:27;;;;;;;21.20;5.05;;;;;;;;;;6162073;23;20019;-94
2022/10/25 08:44:07;;;;;;;12.07;3.85;;;;;;;;;;6185114;23;20035;-94
2022/10/25 08:47:05;;;;;;;9.13;3.20;;;;;;;;;;6183334;23;20040;-94
2022/10/25 08:49:48;;;;;;;;;;;;;;;;;;;;;
2022/10/25 08:52:24;;;;;;;10.10;3.10;;;;;;;;;;6181696;23;20631;-92
2022/10/25 08:54:54;;;;;;;15.73;3.90;;;;;;;;;;6182366;23;20024;-93
2022/10/25 08:57:24;;;;;;;21.40;4.43;;;;;;;;;;6180515;23;20009;-94
2022/10/25 08:59:52;;;;;;;14.75;4.32;;;;;;;;;;6179536;23;20009;-93
2022/10/25 09:02:34;;;;;;;16.02;4.40;;;;;;;;;;6179545;23;20035;-93
2022/10/25 09:05:06;;;;;;;20.42;5.25;;;;;;;;;;6178565;23;20009;-93
2022/10/25 09:08:11;;;;;;;24.20;5.43;;;;;;;;;;6181762;23;20095;-93
2022/10/25 09:10:44;;;;;;;21.90;5.00;;;;;;;;;;6038243;23;20066;-92
2022/10/25 09:13:15;;;;;;;14.43;5.07;;;;;;;;;;6062073;23;20077;-92
2022/10/25 09:16:15;;;;;;;;;;;;;;;;;;;;;
2022/10/25 09:18:41;;;;;;;10.05;3.38;;;;;;;;;;6060361;23;20106;-94
2022/10/25 09:21:31;;;;;;;19.30;5.70;;;;;;;;;;6181302;23;20070;-93
2022/10/25 09:24:00;;;;;;;17.25;4.43;;;;;;;;;;6181471;23;20091;-94
2022/10/25 09:26:40;;;;;;;12.77;5.03;;;;;;;;;;6183407;23;20321;-94
2022/10/25 09:29:35;;;;;;;21.45;4.85;;;;;;;;;;6181066;23;20075;-94
2022/10/25 09:32:22;;;;;;;13.90;4.95;;;;;;;;;;6177497;23;20013;-95
2022/10/25 09:34:55;;;;;;;21.33;7.13;;;;;;;;;;6179882;23;20112;-94
2022/10/25 09:37:44;;;;;;;17.40;4.30;;;;;;;;;;6155130;23;20016;-93
2022/10/25 09:40:19;;;;;;;19.13;5.97;;;;;;;;;;6109260;23;20012;-93
2022/10/25 09:42:55;;;;;;;11.20;3.67;;;;;;;;;;6179723;23;20013;-94
2022/10/25 09:45:28;;;;;;;;;;;;;;;;;;6181750;22;20095;-93
2022/10/25 09:48:31;;;;;;;19.25;4.57;;;;;;;;;;6181767;23;19939;-94
2022/10/25 09:51:11;;;;;;;14.73;4.28;;;;;;;;;;6156533;23;20072;-94
2022/10/25 09:53:43;;;;;;;24.65;4.35;;;;;;;;;;6179866;23;20015;-94
2022/10/25 09:59:03;;;;;;;17.42;3.67;;;;;;;;;;6173495;23;20084;-94
2022/10/25 10:01:29;;;;;;;18.73;4.03;;;;;;;;;;6157162;23;20007;-93
2022/10/25 10:04:01;;;;;;;19.42;4.32;;;;;;;;;;6155955;23;20005;-94
2022/10/25 10:06:46;;;;;;;12.18;3.83;;;;;;;;;;6179945;23;20013;-94
2022/10/25 10:09:26;;;;;;;;;;;;;;;;;;;;;
2022/10/25 10:11:56;;;;;;;18.48;4.13;;;;;;;;;;6182179;23;20101;-94
2022/10/25 10:14:39;;;;;;;19.25;4.35;;;;;;;;;;6154287;23;20017;-94
2022/10/25 10:17:16;;;;;;;;;;;;;;;;;;;;;
2022/10/25 10:20:09;;;;;;;14.73;3.20;;;;;;;;;;6182917;23;20012;-94
2022/10/25 10:22:52;;;;;;;13.18;3.30;;;;;;;;;;6159397;23;20013;-94
2022/10/25 10:25:41;;;;;;;12.95;3.50;;;;;;;;;;6188400;23;20346;-95
2022/10/25 10:31:09;;;;;;;14.63;3.45;;;;;;;;;;6183355;23;20028;-96
2022/10/25 10:34:00;;;;;;;9.60;2.45;;;;;;;;;;6183559;23;20016;-92
2022/10/25 10:36:32;;;;;;;12.40;3.05;;;;;;;;;;6177597;23;20012;-90
2022/10/25 10:39:17;;;;;;;12.73;3.22;;;;;;;;;;6173980;23;20524;-91
2022/10/25 10:41:54;;;;;;;12.43;3.20;;;;;;;;;;6179477;23;20001;-94
2022/10/25 10:44:33;;;;;;;7.60;2.35;;;;;;;;;;6177126;23;20414;-92
2022/10/25 10:46:59;;;;;;;12.20;3.25;;;;;;;;;;6181409;22;20017;-90
2022/10/25 10:49:50;;;;;;;8.50;2.05;;;;;;;;;;6186142;23;20023;-92
2022/10/25 10:52:34;;;;;;;13.07;3.25;;;;;;;;;;6177551;23;20075;-92
2022/10/25 10:55:17;;;;;;;12.32;2.72;;;;;;;;;;6181140;23;20048;-94
2022/10/25 10:58:02;;;;;;;5.53;1.50;;;;;;;;;;6179092;23;20076;-96
2022/10/25 11:00:32;;;;;;;11.35;3.28;;;;;;;;;;6181829;23;20008;-93
2022/10/25 11:06:02;;;;;;;8.57;2.65;;;;;;;;;;6180119;23;20012;-93
2022/10/25 11:08:30;;;;;;;11.45;2.50;;;;;;;;;;6182097;23;20032;-94
2022/10/25 11:11:15;;;;;;;8.68;2.25;;;;;;;;;;6156173;23;20028;-94
2022/10/25 11:14:00;;;;;;;8.52;1.83;;;;;;;;;;6185506;23;20048;-96
2022/10/25 11:20:05;;;;;;;10.73;2.20;;;;;;;;;;6127018;23;20010;-95
2022/10/25 11:22:34;;;;;;;19.17;3.35;;;;;;;;;;6182282;23;20009;-94
2022/10/25 11:25:32;;;;;;;7.05;1.85;;;;;;;;;;6183935;23;20013;-94
2022/10/25 11:31:09;;;;;;;11.18;2.03;;;;;;;;;;6178241;23;20015;-94
2022/10/25 11:33:54;;;;;;;13.65;2.20;;;;;;;;;;6180212;23;20001;-94
2022/10/25 11:36:40;;;;;;;;;;;;;;;;;;;;;
2022/10/25 11:39:30;;;;;;;11.52;2.92;;;;;;;;;;6178976;23;20459;-96
2022/10/25 11:45:51;;;;;;;8.18;1.90;;;;;;;;;;6064853;23;20026;-94
2022/10/25 11:48:54;;;;;;;5.53;1.75;;;;;;;;;;6032089;23;20094;-94
2022/10/25 11:51:35;;;;;;;8.77;2.20;;;;;;;;;;6030800;23;20063;-95
2022/10/25 11:54:37;;;;;;;5.70;2.28;;;;;;;;;;6030610;23;20018;-95
2022/10/25 12:00:35;;;;;;;;;;;;;;;;;;;;;
2022/10/25 12:03:01;;;;;;;;;;;;;;;;;;6035632;23;20078;-94
2022/10/25 12:05:52;;;;;;;4.22;1.65;;;;;;;;;;6056562;23;19902;-96
2022/10/25 12:08:40;;;;;;;8.52;1.92;;;;;;;;;;6097964;23;20190;-95
2022/10/25 12:11:40;;;;;;;9.30;2.08;;;;;;;;;;6152826;23;20013;-95
2022/10/25 12:20:03;;;;;;;;;;;;;;;;;;6173639;22;20473;-92
2022/10/25 12:22:43;;;;;;;9.50;2.38;;;;;;;;;;6170406;23;19900;-92
2022/10/25 12:25:28;;;;;;;6.07;2.00;;;;;;;;;;6148187;23;20005;-91
2022/10/25 12:28:15;;;;;;;20.55;4.72;;;;;;;;;;6146715;23;20036;-91
2022/10/25 12:30:41;;;;;;;;;;;;;;;;;;6126616;23;20409;-92
2022/10/25 12:33:17;;;;;;;13.48;2.67;;;;;;;;;;6175594;23;19904;-92
2022/10/25 12:35:47;;;;;;;12.48;3.38;;;;;;;;;;6150425;23;20005;-92
2022/10/25 12:38:32;;;;;;;5.22;2.10;;;;;;;;;;6152275;23;20011;-92
2022/10/25 12:41:01;;;;;;;7.70;1.80;;;;;;;;;;6146558;23;20044;-92
2022/10/25 12:43:46;;;;;;;8.82;2.17;;;;;;;;;;6151146;23;20128;-92
2022/10/25 12:46:12;;;;;;;9.65;1.70;;;;;;;;;;6149965;23;20009;-92
2022/10/25 12:48:41;;;;;;;7.70;2.03;;;;;;;;;;6150527;23;20011;-92
2022/10/25 12:51:13;;;;;;;6.85;1.60;;;;;;;;;;6148526;23;20318;-92
2022/10/25 12:53:49;;;;;;;9.95;2.00;;;;;;;;;;6152315;23;20005;-92
2022/10/25 12:56:29;;;;;;;5.22;1.60;;;;;;;;;;6149478;23;20036;-92
2022/10/25 12:59:01;;;;;;;11.93;2.10;;;;;;;;;;6150881;23;20055;-92
2022/10/25 13:01:27;;;;;;;8.55;2.05;;;;;;;;;;6150037;23;20029;-92
2022/10/25 13:04:08;;;;;;;5.13;1.80;;;;;;;;;;6151579;23;20005;-92
2022/10/25 13:06:34;;;;;;;10.57;2.22;;;;;;;;;;6147803;23;20020;-91
2022/10/25 13:09:02;;;;;;;9.88;2.85;;;;;;;;;;6152202;23;20012;-92
2022/10/25 13:11:33;;;;;;;9.10;1.58;;;;;;;;;;6149139;23;20036;-92
2022/10/25 13:13:59;;;;;;;5.43;2.00;;;;;;;;;;6151204;23;20465;-92
2022/10/25 13:16:27;;;;;;;9.10;2.60;;;;;;;;;;6150839;23;20013;-92
2022/10/25 13:19:11;;;;;;;5.45;1.55;;;;;;;;;;6147493;23;20021;-92
2022/10/25 13:21:53;;;;;;;7.68;2.63;;;;;;;;;;6142084;23;20092;-92
2022/10/25 13:24:37;;;;;;;8.38;2.65;;;;;;;;;;6147464;23;20001;-92
2022/10/25 13:27:13;;;;;;;13.13;2.20;;;;;;;;;;6147291;23;20092;-91
2022/10/25 13:29:45;;;;;;;6.13;2.08;;;;;;;;;;6146870;23;20006;-92
2022/10/25 13:32:21;;;;;;;8.30;1.70;;;;;;;;;;6145563;23;20032;-92
2022/10/25 13:34:47;;;;;;;;;;;;;;;;;;6146994;23;20009;-92
2022/10/25 13:37:31;;;;;;;5.30;2.47;;;;;;;;;;6143789;23;20000;-92
2022/10/25 13:40:03;;;;;;;12.52;3.08;;;;;;;;;;6145651;23;20009;-92
2022/10/25 13:42:36;;;;;;;4.80;1.77;;;;;;;;;;6143684;23;20013;-91
2022/10/25 13:45:02;;;;;;;9.50;2.35;;;;;;;;;;6145524;23;20005;-92
2022/10/25 13:47:49;;;;;;;8.07;2.63;;;;;;;;;;6144103;23;20002;-92
2022/10/25 13:50:19;;;;;;;2.00;1.58;;;;;;;;;;6146796;23;20285;-92
2022/10/25 13:52:54;;;;;;;8.13;2.55;;;;;;;;;;6143819;23;20432;-92
2022/10/25 13:55:21;;;;;;;13.07;3.00;;;;;;;;;;6146187;23;20015;-92
2022/10/25 13:57:57;;;;;;;14.63;2.70;;;;;;;;;;6144954;23;20477;-91
2022/10/25 14:00:26;;;;;;;8.63;2.47;;;;;;;;;;6147259;23;20076;-92
2022/10/25 14:03:02;;;;;;;13.57;2.70;;;;;;;;;;6144540;23;20009;-92
2022/10/25 14:05:47;;;;;;;8.57;2.42;;;;;;;;;;6145741;23;20005;-92
2022/10/25 14:08:20;;;;;;;15.23;2.90;;;;;;;;;;6142394;23;20021;-92
2022/10/25 14:10:47;;;;;;;7.00;1.95;;;;;;;;;;6144906;23;20006;-92
2022/10/25 14:13:16;;;;;;;12.60;2.67;;;;;;;;;;6143846;23;20099;-93
2022/10/25 14:15:51;;;;;;;10.10;2.78;;;;;;;;;;6143747;23;20469;-91
2022/10/25 14:18:20;;;;;;;12.48;2.45;;;;;;;;;;6146632;22;20465;-92
2022/10/25 14:20:48;;;;;;;10.38;2.92;;;;;;;;;;6115410;23;20018;-92
2022/10/25 14:23:17;;;;;;;7.03;2.70;;;;;;;;;;6112571;23;20417;-92
2022/10/25 14:25:51;;;;;;;14.07;3.30;;;;;;;;;;6116223;23;20006;-92
2022/10/25 14:28:22;;;;;;;9.15;2.88;;;;;;;;;;6114991;23;20014;-91
2022/10/25 14:30:52;;;;;;;6.93;2.95;;;;;;;;;;6113851;23;20065;-92
2022/10/25 14:33:24;;;;;;;9.90;2.33;;;;;;;;;;6092940;23;20025;-92
2022/10/25 14:35:52;;;;;;;10.65;3.10;;;;;;;;;;6113618;23;20018;-91
2022/10/25 14:38:26;;;;;;;13.70;3.35;;;;;;;;;;6115713;23;20058;-92
2022/10/25 14:40:52;;;;;;;11.85;3.13;;;;;;;;;;6112957;23;20366;-92
2022/10/25 14:43:23;;;;;;;6.32;2.35;;;;;;;;;;6118363;23;20006;-92
2022/10/25 14:45:56;;;;;;;10.40;3.65;;;;;;;;;;6112141;23;20010;-92
2022/10/25 14:48:22;;;;;;;8.98;3.40;;;;;;;;;;6115303;23;20025;-92
2022/10/25 14:50:48;;;;;;;6.82;2.75;;;;;;;;;;6111844;23;20010;-92
2022/10/25 14:53:16;;;;;;;11.15;3.45;;;;;;;;;;6091883;23;20403;-91
2022/10/25 14:55:50;;;;;;;12.80;4.10;;;;;;;;;;6112902;23;20045;-92
2022/10/25 14:58:16;;;;;;;16.73;3.28;;;;;;;;;;6112969;23;20024;-92
2022/10/25 15:00:51;;;;;;;14.98;3.13;;;;;;;;;;6085680;23;20077;-91
2022/10/25 15:03:17;;;;;;;15.77;4.32;;;;;;;;;;6111067;23;20014;-92
2022/10/25 15:05:43;;;;;;;10.02;3.28;;;;;;;;;;6085428;23;20055;-92
2022/10/25 15:08:17;;;;;;;10.82;3.65;;;;;;;;;;6089609;23;20010;-92
2022/10/25 15:10:44;;;;;;;9.23;3.50;;;;;;;;;;6111353;23;20364;-91
2022/10/25 15:13:15;;;;;;;9.77;3.88;;;;;;;;;;6111750;23;20010;-91
2022/10/25 15:15:43;;;;;;;6.13;3.10;;;;;;;;;;6112470;23;20093;-92
2022/10/25 15:18:25;;;;;;;17.45;4.00;;;;;;;;;;6114881;23;20343;-91
2022/10/25 15:21:05;;;;;;;13.27;4.32;;;;;;;;;;6144346;23;20029;-91
2022/10/25 15:23:31;;;;;;;10.18;4.70;;;;;;;;;;6142529;23;20069;-90
2022/10/25 15:25:58;;;;;;;9.98;4.05;;;;;;;;;;6119706;23;20068;-91
2022/10/25 15:28:24;;;;;;;12.27;4.28;;;;;;;;;;6120566;23;20021;-91
2022/10/25 15:30:50;;;;;;;13.00;4.50;;;;;;;;;;6117943;23;20024;-91
2022/10/25 15:33:27;;;;;;;38.60;7.30;;;;;;;;;;6143901;23;20362;-90
2022/10/25 15:35:54;;;;;;;10.25;4.22;;;;;;;;;;6144911;23;20014;-91
2022/10/25 15:38:20;;;;;;;8.00;4.20;;;;;;;;;;6144332;23;20006;-90
2022/10/25 15:40:47;;;;;;;14.38;4.28;;;;;;;;;;6141849;23;20009;-91
2022/10/25 15:43:13;;;;;;;9.13;4.18;;;;;;;;;;6146036;23;20006;-91